sensor_id;sensor_type;location;lat;lon;timestamp;temperature;humidity
680;DHT22;322;48.846;9.230;2023-06-14T00:00:13;13.20;71.40
680;DHT22;322;48.846;9.230;2023-06-14T00:02:42;13.20;74.90
680;DHT22;322;48.846;9.230;2023-06-14T00:05:10;13.20;72.00
680;DHT22;322;48.846;9.230;2023-06-14T00:07:41;13.20;72.30
680;DHT22;322;48.846;9.230;2023-06-14T00:10:11;13.10;71.50
680;DHT22;322;48.846;9.230;2023-06-14T00:12:39;13.20;70.80
680;DHT22;322;48.846;9.230;2023-06-14T00:15:08;13.20;78.80
680;DHT22;322;48.846;9.230;2023-06-14T00:17:38;13.10;74.50
680;DHT22;322;48.846;9.230;2023-06-14T00:20:08;13.00;74.30
680;DHT22;322;48.846;9.230;2023-06-14T00:22:36;12.90;73.80
680;DHT22;322;48.846;9.230;2023-06-14T00:25:06;12.80;78.10
680;DHT22;322;48.846;9.230;2023-06-14T00:27:54;12.90;82.10
680;DHT22;322;48.846;9.230;2023-06-14T00:30:22;12.90;78.50
680;DHT22;322;48.846;9.230;2023-06-14T00:32:52;13.00;77.40
680;DHT22;322;48.846;9.230;2023-06-14T00:35:20;12.90;77.00
680;DHT22;322;48.846;9.230;2023-06-14T00:37:48;12.90;75.50
680;DHT22;322;48.846;9.230;2023-06-14T00:40:16;13.00;75.70
680;DHT22;322;48.846;9.230;2023-06-14T00:42:44;12.90;74.90
680;DHT22;322;48.846;9.230;2023-06-14T00:45:12;12.80;78.90
680;DHT22;322;48.846;9.230;2023-06-14T00:47:41;12.80;80.50
680;DHT22;322;48.846;9.230;2023-06-14T00:50:11;12.70;78.10
680;DHT22;322;48.846;9.230;2023-06-14T00:52:40;12.70;75.80
680;DHT22;322;48.846;9.230;2023-06-14T00:55:08;12.60;76.20
680;DHT22;322;48.846;9.230;2023-06-14T00:57:36;12.40;78.40
680;DHT22;322;48.846;9.230;2023-06-14T01:00:08;12.30;79.40
680;DHT22;322;48.846;9.230;2023-06-14T01:02:37;12.30;82.10
680;DHT22;322;48.846;9.230;2023-06-14T01:05:06;12.10;79.40
680;DHT22;322;48.846;9.230;2023-06-14T01:07:44;12.10;80.50
680;DHT22;322;48.846;9.230;2023-06-14T01:10:37;12.20;81.00
680;DHT22;322;48.846;9.230;2023-06-14T01:13:13;12.20;81.50
680;DHT22;322;48.846;9.230;2023-06-14T01:15:44;12.20;84.80
680;DHT22;322;48.846;9.230;2023-06-14T01:18:13;12.30;83.40
680;DHT22;322;48.846;9.230;2023-06-14T01:20:46;12.30;88.80
680;DHT22;322;48.846;9.230;2023-06-14T01:23:18;12.20;85.10
680;DHT22;322;48.846;9.230;2023-06-14T01:25:46;12.10;87.00
680;DHT22;322;48.846;9.230;2023-06-14T01:28:20;11.90;83.50
680;DHT22;322;48.846;9.230;2023-06-14T01:30:51;11.90;87.50
680;DHT22;322;48.846;9.230;2023-06-14T01:33:22;11.90;89.40
680;DHT22;322;48.846;9.230;2023-06-14T01:35:53;11.80;90.20
680;DHT22;322;48.846;9.230;2023-06-14T01:38:24;11.70;84.70
680;DHT22;322;48.846;9.230;2023-06-14T01:40:54;11.70;90.30
680;DHT22;322;48.846;9.230;2023-06-14T01:43:23;11.60;90.40
680;DHT22;322;48.846;9.230;2023-06-14T01:45:54;11.70;85.20
680;DHT22;322;48.846;9.230;2023-06-14T01:48:23;11.60;90.40
680;DHT22;322;48.846;9.230;2023-06-14T01:50:52;11.60;90.50
680;DHT22;322;48.846;9.230;2023-06-14T01:53:21;11.70;90.60
680;DHT22;322;48.846;9.230;2023-06-14T01:55:49;11.60;90.90
680;DHT22;322;48.846;9.230;2023-06-14T01:58:20;11.60;88.50
680;DHT22;322;48.846;9.230;2023-06-14T02:00:48;11.60;87.60
680;DHT22;322;48.846;9.230;2023-06-14T02:03:18;11.60;88.10
680;DHT22;322;48.846;9.230;2023-06-14T02:05:46;11.50;92.10
680;DHT22;322;48.846;9.230;2023-06-14T02:08:14;11.50;93.10
680;DHT22;322;48.846;9.230;2023-06-14T02:10:43;11.50;93.20
680;DHT22;322;48.846;9.230;2023-06-14T02:13:12;11.40;93.10
680;DHT22;322;48.846;9.230;2023-06-14T02:15:40;11.40;91.80
680;DHT22;322;48.846;9.230;2023-06-14T02:18:10;11.40;90.90
680;DHT22;322;48.846;9.230;2023-06-14T02:20:38;11.40;90.20
680;DHT22;322;48.846;9.230;2023-06-14T02:23:06;11.40;91.50
680;DHT22;322;48.846;9.230;2023-06-14T02:25:35;11.40;93.60
680;DHT22;322;48.846;9.230;2023-06-14T02:28:04;11.50;94.90
680;DHT22;322;48.846;9.230;2023-06-14T02:30:32;11.40;94.50
680;DHT22;322;48.846;9.230;2023-06-14T02:33:00;11.40;92.70
680;DHT22;322;48.846;9.230;2023-06-14T02:35:29;11.50;91.80
680;DHT22;322;48.846;9.230;2023-06-14T02:37:57;11.50;91.90
680;DHT22;322;48.846;9.230;2023-06-14T02:40:25;11.50;92.90
680;DHT22;322;48.846;9.230;2023-06-14T02:42:53;11.40;91.40
680;DHT22;322;48.846;9.230;2023-06-14T02:45:23;11.30;91.30
680;DHT22;322;48.846;9.230;2023-06-14T02:47:51;11.20;91.30
680;DHT22;322;48.846;9.230;2023-06-14T02:50:19;11.20;91.60
680;DHT22;322;48.846;9.230;2023-06-14T02:52:50;11.10;91.60
680;DHT22;322;48.846;9.230;2023-06-14T02:55:19;11.00;93.30
680;DHT22;322;48.846;9.230;2023-06-14T02:57:47;11.00;96.00
680;DHT22;322;48.846;9.230;2023-06-14T03:00:16;11.00;93.20
680;DHT22;322;48.846;9.230;2023-06-14T03:02:47;11.00;95.40
680;DHT22;322;48.846;9.230;2023-06-14T03:05:15;10.90;96.00
680;DHT22;322;48.846;9.230;2023-06-14T03:07:43;10.90;96.40
680;DHT22;322;48.846;9.230;2023-06-14T03:10:11;10.70;96.60
680;DHT22;322;48.846;9.230;2023-06-14T03:12:40;10.70;95.00
680;DHT22;322;48.846;9.230;2023-06-14T03:15:09;10.60;94.80
680;DHT22;322;48.846;9.230;2023-06-14T03:17:40;10.70;97.20
680;DHT22;322;48.846;9.230;2023-06-14T03:20:14;10.60;96.30
680;DHT22;322;48.846;9.230;2023-06-14T03:22:43;10.60;98.30
680;DHT22;322;48.846;9.230;2023-06-14T03:25:12;10.50;98.50
680;DHT22;322;48.846;9.230;2023-06-14T03:27:41;10.50;98.80
680;DHT22;322;48.846;9.230;2023-06-14T03:30:10;10.50;99.40
680;DHT22;322;48.846;9.230;2023-06-14T03:32:38;10.50;96.50
680;DHT22;322;48.846;9.230;2023-06-14T03:35:07;10.60;98.50
680;DHT22;322;48.846;9.230;2023-06-14T03:37:36;10.60;99.50
680;DHT22;322;48.846;9.230;2023-06-14T03:40:05;10.60;97.80
680;DHT22;322;48.846;9.230;2023-06-14T03:42:33;10.60;98.40
680;DHT22;322;48.846;9.230;2023-06-14T03:45:01;10.50;97.60
680;DHT22;322;48.846;9.230;2023-06-14T03:47:29;10.50;98.80
680;DHT22;322;48.846;9.230;2023-06-14T03:49:58;10.50;98.90
680;DHT22;322;48.846;9.230;2023-06-14T03:52:27;10.50;99.10
680;DHT22;322;48.846;9.230;2023-06-14T03:54:56;10.60;99.20
680;DHT22;322;48.846;9.230;2023-06-14T03:57:29;10.60;99.10
680;DHT22;322;48.846;9.230;2023-06-14T03:59:57;10.70;98.70
680;DHT22;322;48.846;9.230;2023-06-14T04:02:25;10.70;98.70
680;DHT22;322;48.846;9.230;2023-06-14T04:04:55;10.60;99.30
680;DHT22;322;48.846;9.230;2023-06-14T04:07:23;10.70;97.10
680;DHT22;322;48.846;9.230;2023-06-14T04:09:51;10.70;99.50
680;DHT22;322;48.846;9.230;2023-06-14T04:12:21;10.70;99.20
680;DHT22;322;48.846;9.230;2023-06-14T04:14:58;10.80;98.10
680;DHT22;322;48.846;9.230;2023-06-14T04:17:46;10.90;98.60
680;DHT22;322;48.846;9.230;2023-06-14T04:20:15;11.00;99.50
680;DHT22;322;48.846;9.230;2023-06-14T04:22:44;11.10;98.90
680;DHT22;322;48.846;9.230;2023-06-14T04:25:12;11.10;97.00
680;DHT22;322;48.846;9.230;2023-06-14T04:27:41;11.20;97.20
680;DHT22;322;48.846;9.230;2023-06-14T04:30:11;11.30;98.10
680;DHT22;322;48.846;9.230;2023-06-14T04:32:40;11.40;98.70
680;DHT22;322;48.846;9.230;2023-06-14T04:35:09;11.60;98.00
680;DHT22;322;48.846;9.230;2023-06-14T04:37:38;11.80;97.70
680;DHT22;322;48.846;9.230;2023-06-14T04:40:10;11.90;97.40
680;DHT22;322;48.846;9.230;2023-06-14T04:42:38;12.00;96.20
680;DHT22;322;48.846;9.230;2023-06-14T04:45:09;12.10;95.20
680;DHT22;322;48.846;9.230;2023-06-14T04:47:37;12.20;96.40
680;DHT22;322;48.846;9.230;2023-06-14T04:50:07;12.30;96.70
680;DHT22;322;48.846;9.230;2023-06-14T04:52:37;12.30;97.10
680;DHT22;322;48.846;9.230;2023-06-14T04:55:05;12.30;96.30
680;DHT22;322;48.846;9.230;2023-06-14T04:57:33;12.50;96.30
680;DHT22;322;48.846;9.230;2023-06-14T05:00:02;12.60;97.00
680;DHT22;322;48.846;9.230;2023-06-14T05:02:33;12.60;94.90
680;DHT22;322;48.846;9.230;2023-06-14T05:05:02;12.70;92.50
680;DHT22;322;48.846;9.230;2023-06-14T05:07:33;12.70;94.20
680;DHT22;322;48.846;9.230;2023-06-14T05:10:01;12.80;96.70
680;DHT22;322;48.846;9.230;2023-06-14T05:12:30;12.90;95.70
680;DHT22;322;48.846;9.230;2023-06-14T05:14:58;13.10;94.90
680;DHT22;322;48.846;9.230;2023-06-14T05:17:26;13.10;92.40
680;DHT22;322;48.846;9.230;2023-06-14T05:19:56;13.20;91.20
680;DHT22;322;48.846;9.230;2023-06-14T05:22:24;13.20;94.50
680;DHT22;322;48.846;9.230;2023-06-14T05:24:52;13.40;93.50
680;DHT22;322;48.846;9.230;2023-06-14T05:27:20;13.50;92.60
680;DHT22;322;48.846;9.230;2023-06-14T05:29:48;13.60;92.60
680;DHT22;322;48.846;9.230;2023-06-14T05:32:16;13.80;90.00
680;DHT22;322;48.846;9.230;2023-06-14T05:34:44;13.80;89.50
680;DHT22;322;48.846;9.230;2023-06-14T05:37:14;14.00;88.20
680;DHT22;322;48.846;9.230;2023-06-14T05:39:42;14.10;90.00
680;DHT22;322;48.846;9.230;2023-06-14T05:42:10;14.10;91.90
680;DHT22;322;48.846;9.230;2023-06-14T05:44:38;14.40;90.10
680;DHT22;322;48.846;9.230;2023-06-14T05:47:06;14.50;88.00
680;DHT22;322;48.846;9.230;2023-06-14T05:49:35;14.70;86.20
680;DHT22;322;48.846;9.230;2023-06-14T05:52:03;14.70;86.00
680;DHT22;322;48.846;9.230;2023-06-14T05:54:33;14.80;86.80
680;DHT22;322;48.846;9.230;2023-06-14T05:57:01;14.90;90.30
680;DHT22;322;48.846;9.230;2023-06-14T05:59:30;14.90;90.00
680;DHT22;322;48.846;9.230;2023-06-14T06:01:58;15.00;90.50
680;DHT22;322;48.846;9.230;2023-06-14T06:04:26;15.10;90.20
680;DHT22;322;48.846;9.230;2023-06-14T06:06:54;15.20;88.20
680;DHT22;322;48.846;9.230;2023-06-14T06:09:22;15.30;85.40
680;DHT22;322;48.846;9.230;2023-06-14T06:11:51;15.50;83.80
680;DHT22;322;48.846;9.230;2023-06-14T06:14:20;15.60;82.00
680;DHT22;322;48.846;9.230;2023-06-14T06:16:48;15.80;81.10
680;DHT22;322;48.846;9.230;2023-06-14T06:19:16;15.90;81.80
680;DHT22;322;48.846;9.230;2023-06-14T06:21:45;16.10;82.30
680;DHT22;322;48.846;9.230;2023-06-14T06:24:14;16.20;81.70
680;DHT22;322;48.846;9.230;2023-06-14T06:26:42;16.30;80.60
680;DHT22;322;48.846;9.230;2023-06-14T06:29:11;16.50;77.00
680;DHT22;322;48.846;9.230;2023-06-14T06:31:39;16.50;76.70
680;DHT22;322;48.846;9.230;2023-06-14T06:34:08;16.60;74.80
680;DHT22;322;48.846;9.230;2023-06-14T06:36:36;16.60;77.00
680;DHT22;322;48.846;9.230;2023-06-14T06:39:04;16.80;73.90
680;DHT22;322;48.846;9.230;2023-06-14T06:41:37;16.80;73.10
680;DHT22;322;48.846;9.230;2023-06-14T06:44:07;16.90;73.00
680;DHT22;322;48.846;9.230;2023-06-14T06:46:38;17.20;70.00
680;DHT22;322;48.846;9.230;2023-06-14T06:49:08;17.40;67.20
680;DHT22;322;48.846;9.230;2023-06-14T06:51:36;17.60;66.40
680;DHT22;322;48.846;9.230;2023-06-14T06:54:04;17.70;66.60
680;DHT22;322;48.846;9.230;2023-06-14T06:56:32;17.80;66.30
680;DHT22;322;48.846;9.230;2023-06-14T06:59:00;17.90;64.10
680;DHT22;322;48.846;9.230;2023-06-14T07:01:28;17.80;64.40
680;DHT22;322;48.846;9.230;2023-06-14T07:03:58;17.90;66.70
680;DHT22;322;48.846;9.230;2023-06-14T07:06:26;18.00;67.60
680;DHT22;322;48.846;9.230;2023-06-14T07:08:54;18.10;64.40
680;DHT22;322;48.846;9.230;2023-06-14T07:11:28;18.20;66.20
680;DHT22;322;48.846;9.230;2023-06-14T07:13:56;18.40;65.50
680;DHT22;322;48.846;9.230;2023-06-14T07:16:24;18.50;61.20
680;DHT22;322;48.846;9.230;2023-06-14T07:18:52;18.60;62.50
680;DHT22;322;48.846;9.230;2023-06-14T07:21:22;18.70;62.60
680;DHT22;322;48.846;9.230;2023-06-14T07:23:52;18.90;62.40
680;DHT22;322;48.846;9.230;2023-06-14T07:26:21;19.00;61.00
680;DHT22;322;48.846;9.230;2023-06-14T07:28:49;19.10;59.60
680;DHT22;322;48.846;9.230;2023-06-14T07:31:20;19.10;61.70
680;DHT22;322;48.846;9.230;2023-06-14T07:33:48;19.20;62.30
680;DHT22;322;48.846;9.230;2023-06-14T07:36:16;19.20;60.40
680;DHT22;322;48.846;9.230;2023-06-14T07:38:46;19.20;60.90
680;DHT22;322;48.846;9.230;2023-06-14T07:41:14;19.20;60.70
680;DHT22;322;48.846;9.230;2023-06-14T07:43:42;19.40;60.30
680;DHT22;322;48.846;9.230;2023-06-14T07:46:10;19.50;59.30
680;DHT22;322;48.846;9.230;2023-06-14T07:48:41;19.60;61.60
680;DHT22;322;48.846;9.230;2023-06-14T07:51:09;19.60;58.70
680;DHT22;322;48.846;9.230;2023-06-14T07:53:37;19.60;57.80
680;DHT22;322;48.846;9.230;2023-06-14T07:56:06;19.70;57.40
680;DHT22;322;48.846;9.230;2023-06-14T07:58:34;19.80;55.50
680;DHT22;322;48.846;9.230;2023-06-14T08:01:02;19.80;55.10
680;DHT22;322;48.846;9.230;2023-06-14T08:03:33;19.80;55.60
680;DHT22;322;48.846;9.230;2023-06-14T08:06:01;19.90;56.90
680;DHT22;322;48.846;9.230;2023-06-14T08:08:30;20.10;56.90
680;DHT22;322;48.846;9.230;2023-06-14T08:10:58;20.20;55.80
680;DHT22;322;48.846;9.230;2023-06-14T08:13:28;20.40;55.70
680;DHT22;322;48.846;9.230;2023-06-14T08:15:56;20.40;54.70
680;DHT22;322;48.846;9.230;2023-06-14T08:18:25;20.50;55.50
680;DHT22;322;48.846;9.230;2023-06-14T08:20:53;20.70;56.10
680;DHT22;322;48.846;9.230;2023-06-14T08:23:21;20.80;54.90
680;DHT22;322;48.846;9.230;2023-06-14T08:25:56;20.90;54.30
680;DHT22;322;48.846;9.230;2023-06-14T08:28:24;21.00;52.90
680;DHT22;322;48.846;9.230;2023-06-14T08:30:54;21.00;54.30
680;DHT22;322;48.846;9.230;2023-06-14T08:33:22;21.20;53.70
680;DHT22;322;48.846;9.230;2023-06-14T08:35:50;21.40;54.20
680;DHT22;322;48.846;9.230;2023-06-14T08:38:18;21.40;52.90
680;DHT22;322;48.846;9.230;2023-06-14T08:40:48;21.40;53.60
680;DHT22;322;48.846;9.230;2023-06-14T08:43:18;21.50;53.20
680;DHT22;322;48.846;9.230;2023-06-14T08:45:48;21.70;52.70
680;DHT22;322;48.846;9.230;2023-06-14T08:48:22;21.80;53.10
680;DHT22;322;48.846;9.230;2023-06-14T08:50:54;21.90;52.00
680;DHT22;322;48.846;9.230;2023-06-14T08:53:30;21.90;52.10
680;DHT22;322;48.846;9.230;2023-06-14T08:56:02;21.90;51.80
680;DHT22;322;48.846;9.230;2023-06-14T08:58:32;22.10;53.10
680;DHT22;322;48.846;9.230;2023-06-14T09:01:01;22.30;53.40
680;DHT22;322;48.846;9.230;2023-06-14T09:03:31;22.50;52.90
680;DHT22;322;48.846;9.230;2023-06-14T09:06:00;22.70;50.00
680;DHT22;322;48.846;9.230;2023-06-14T09:08:28;22.40;50.00
680;DHT22;322;48.846;9.230;2023-06-14T09:10:57;22.50;50.80
680;DHT22;322;48.846;9.230;2023-06-14T09:13:26;22.50;51.00
680;DHT22;322;48.846;9.230;2023-06-14T09:15:57;22.50;49.90
680;DHT22;322;48.846;9.230;2023-06-14T09:18:35;22.50;50.30
680;DHT22;322;48.846;9.230;2023-06-14T09:21:03;22.60;48.90
680;DHT22;322;48.846;9.230;2023-06-14T09:23:35;22.70;49.20
680;DHT22;322;48.846;9.230;2023-06-14T09:26:08;22.80;48.40
680;DHT22;322;48.846;9.230;2023-06-14T09:28:37;22.80;48.60
680;DHT22;322;48.846;9.230;2023-06-14T09:31:09;22.80;49.40
680;DHT22;322;48.846;9.230;2023-06-14T09:33:41;23.00;49.30
680;DHT22;322;48.846;9.230;2023-06-14T09:36:11;23.20;49.90
680;DHT22;322;48.846;9.230;2023-06-14T09:38:40;23.30;49.20
680;DHT22;322;48.846;9.230;2023-06-14T09:41:08;23.80;46.50
680;DHT22;322;48.846;9.230;2023-06-14T09:43:37;24.00;45.30
680;DHT22;322;48.846;9.230;2023-06-14T09:46:09;24.20;44.40
680;DHT22;322;48.846;9.230;2023-06-14T09:48:39;24.80;43.00
680;DHT22;322;48.846;9.230;2023-06-14T09:51:10;25.40;44.60
680;DHT22;322;48.846;9.230;2023-06-14T09:53:43;25.40;44.30
680;DHT22;322;48.846;9.230;2023-06-14T09:56:12;25.50;42.30
680;DHT22;322;48.846;9.230;2023-06-14T09:58:40;25.60;42.70
680;DHT22;322;48.846;9.230;2023-06-14T10:01:17;25.60;44.00
680;DHT22;322;48.846;9.230;2023-06-14T10:03:50;25.30;41.40
680;DHT22;322;48.846;9.230;2023-06-14T10:06:23;25.50;40.10
680;DHT22;322;48.846;9.230;2023-06-14T10:08:52;25.70;40.60
680;DHT22;322;48.846;9.230;2023-06-14T10:11:23;25.50;39.20
680;DHT22;322;48.846;9.230;2023-06-14T10:13:51;24.40;40.20
680;DHT22;322;48.846;9.230;2023-06-14T10:16:23;23.80;40.30
680;DHT22;322;48.846;9.230;2023-06-14T10:19:04;23.50;40.70
680;DHT22;322;48.846;9.230;2023-06-14T10:21:43;23.90;40.60
680;DHT22;322;48.846;9.230;2023-06-14T10:24:17;24.60;39.80
680;DHT22;322;48.846;9.230;2023-06-14T10:26:57;25.60;38.50
680;DHT22;322;48.846;9.230;2023-06-14T10:29:26;26.50;35.30
680;DHT22;322;48.846;9.230;2023-06-14T10:32:00;26.40;34.70
680;DHT22;322;48.846;9.230;2023-06-14T10:34:32;25.70;36.30
680;DHT22;322;48.846;9.230;2023-06-14T10:37:04;24.80;38.40
680;DHT22;322;48.846;9.230;2023-06-14T10:39:38;24.40;41.90
680;DHT22;322;48.846;9.230;2023-06-14T10:42:06;25.10;40.40
680;DHT22;322;48.846;9.230;2023-06-14T10:44:42;26.40;37.90
680;DHT22;322;48.846;9.230;2023-06-14T10:47:25;27.70;38.40
680;DHT22;322;48.846;9.230;2023-06-14T10:49:55;29.00;33.60
680;DHT22;322;48.846;9.230;2023-06-14T10:52:26;29.40;31.90
680;DHT22;322;48.846;9.230;2023-06-14T10:55:09;27.70;32.60
680;DHT22;322;48.846;9.230;2023-06-14T10:57:41;26.10;35.80
680;DHT22;322;48.846;9.230;2023-06-14T11:00:19;25.40;37.70
680;DHT22;322;48.846;9.230;2023-06-14T11:03:28;25.10;37.70
680;DHT22;322;48.846;9.230;2023-06-14T11:06:00;25.80;36.30
680;DHT22;322;48.846;9.230;2023-06-14T11:11:42;27.50;35.30
680;DHT22;322;48.846;9.230;2023-06-14T11:14:10;28.40;36.90
680;DHT22;322;48.846;9.230;2023-06-14T11:16:38;29.40;32.50
680;DHT22;322;48.846;9.230;2023-06-14T11:19:07;29.30;31.20
680;DHT22;322;48.846;9.230;2023-06-14T11:21:39;29.30;33.90
680;DHT22;322;48.846;9.230;2023-06-14T11:24:10;29.10;30.00
680;DHT22;322;48.846;9.230;2023-06-14T11:26:38;29.10;31.50
680;DHT22;322;48.846;9.230;2023-06-14T11:29:06;30.00;32.20
680;DHT22;322;48.846;9.230;2023-06-14T11:31:34;30.30;28.80
680;DHT22;322;48.846;9.230;2023-06-14T11:34:02;30.40;31.90
680;DHT22;322;48.846;9.230;2023-06-14T11:36:34;30.20;29.40
680;DHT22;322;48.846;9.230;2023-06-14T11:39:05;29.60;29.50
680;DHT22;322;48.846;9.230;2023-06-14T11:41:36;28.50;30.00
680;DHT22;322;48.846;9.230;2023-06-14T11:44:05;26.30;32.10
680;DHT22;322;48.846;9.230;2023-06-14T11:46:34;25.00;35.00
680;DHT22;322;48.846;9.230;2023-06-14T11:49:03;24.50;36.40
680;DHT22;322;48.846;9.230;2023-06-14T11:51:34;24.10;36.60
680;DHT22;322;48.846;9.230;2023-06-14T11:54:05;24.00;38.20
680;DHT22;322;48.846;9.230;2023-06-14T11:56:33;24.20;37.10
680;DHT22;322;48.846;9.230;2023-06-14T11:59:03;24.60;35.40
680;DHT22;322;48.846;9.230;2023-06-14T12:01:36;25.20;34.20
680;DHT22;322;48.846;9.230;2023-06-14T12:04:06;25.60;35.50
680;DHT22;322;48.846;9.230;2023-06-14T12:06:34;25.50;34.90
680;DHT22;322;48.846;9.230;2023-06-14T12:09:08;25.60;35.00
680;DHT22;322;48.846;9.230;2023-06-14T12:11:40;25.80;34.90
680;DHT22;322;48.846;9.230;2023-06-14T12:14:09;25.40;34.70
680;DHT22;322;48.846;9.230;2023-06-14T12:16:38;24.90;35.50
680;DHT22;322;48.846;9.230;2023-06-14T12:19:12;24.50;35.90
680;DHT22;322;48.846;9.230;2023-06-14T12:21:41;25.30;35.90
680;DHT22;322;48.846;9.230;2023-06-14T12:24:12;26.70;33.80
680;DHT22;322;48.846;9.230;2023-06-14T12:26:41;27.60;32.80
680;DHT22;322;48.846;9.230;2023-06-14T12:29:09;28.20;31.30
680;DHT22;322;48.846;9.230;2023-06-14T12:31:39;29.10;33.30
680;DHT22;322;48.846;9.230;2023-06-14T12:34:08;30.00;29.90
680;DHT22;322;48.846;9.230;2023-06-14T12:36:36;30.50;29.30
680;DHT22;322;48.846;9.230;2023-06-14T12:39:10;29.80;30.00
680;DHT22;322;48.846;9.230;2023-06-14T12:41:38;29.50;30.90
680;DHT22;322;48.846;9.230;2023-06-14T12:44:08;30.60;32.40
680;DHT22;322;48.846;9.230;2023-06-14T12:46:36;31.50;29.30
680;DHT22;322;48.846;9.230;2023-06-14T12:49:08;31.70;28.10
680;DHT22;322;48.846;9.230;2023-06-14T12:51:36;30.90;28.20
680;DHT22;322;48.846;9.230;2023-06-14T12:54:04;29.70;29.80
680;DHT22;322;48.846;9.230;2023-06-14T12:56:34;28.70;30.30
680;DHT22;322;48.846;9.230;2023-06-14T12:59:02;28.50;30.90
680;DHT22;322;48.846;9.230;2023-06-14T13:01:30;28.70;30.40
680;DHT22;322;48.846;9.230;2023-06-14T13:03:58;29.20;29.80
680;DHT22;322;48.846;9.230;2023-06-14T13:06:26;29.20;30.10
680;DHT22;322;48.846;9.230;2023-06-14T13:08:56;28.60;29.80
680;DHT22;322;48.846;9.230;2023-06-14T13:11:26;28.80;30.00
680;DHT22;322;48.846;9.230;2023-06-14T13:13:55;29.30;29.40
680;DHT22;322;48.846;9.230;2023-06-14T13:16:23;29.70;29.30
680;DHT22;322;48.846;9.230;2023-06-14T13:18:51;30.00;28.90
680;DHT22;322;48.846;9.230;2023-06-14T13:21:22;30.30;29.30
680;DHT22;322;48.846;9.230;2023-06-14T13:23:50;30.00;27.80
680;DHT22;322;48.846;9.230;2023-06-14T13:26:18;29.90;28.50
680;DHT22;322;48.846;9.230;2023-06-14T13:28:47;30.30;28.30
680;DHT22;322;48.846;9.230;2023-06-14T13:31:16;31.10;27.90
680;DHT22;322;48.846;9.230;2023-06-14T13:33:44;30.70;27.70
680;DHT22;322;48.846;9.230;2023-06-14T13:36:12;30.40;27.90
680;DHT22;322;48.846;9.230;2023-06-14T13:38:40;30.60;28.40
680;DHT22;322;48.846;9.230;2023-06-14T13:41:08;31.10;28.40
680;DHT22;322;48.846;9.230;2023-06-14T13:43:36;32.20;31.50
680;DHT22;322;48.846;9.230;2023-06-14T13:46:04;33.50;25.80
680;DHT22;322;48.846;9.230;2023-06-14T13:48:33;33.80;25.80
680;DHT22;322;48.846;9.230;2023-06-14T13:51:02;34.20;25.30
680;DHT22;322;48.846;9.230;2023-06-14T13:53:30;34.20;26.10
680;DHT22;322;48.846;9.230;2023-06-14T13:55:59;33.90;27.00
680;DHT22;322;48.846;9.230;2023-06-14T13:58:27;34.70;25.80
680;DHT22;322;48.846;9.230;2023-06-14T14:00:55;32.60;26.90
680;DHT22;322;48.846;9.230;2023-06-14T14:03:23;32.30;28.00
680;DHT22;322;48.846;9.230;2023-06-14T14:05:53;33.40;26.90
680;DHT22;322;48.846;9.230;2023-06-14T14:08:21;34.70;25.50
680;DHT22;322;48.846;9.230;2023-06-14T14:10:49;34.90;25.90
680;DHT22;322;48.846;9.230;2023-06-14T14:13:17;34.60;25.00
680;DHT22;322;48.846;9.230;2023-06-14T14:15:45;34.40;27.70
680;DHT22;322;48.846;9.230;2023-06-14T14:18:13;34.10;25.70
680;DHT22;322;48.846;9.230;2023-06-14T14:20:42;32.00;26.40
680;DHT22;322;48.846;9.230;2023-06-14T14:23:11;30.30;28.00
680;DHT22;322;48.846;9.230;2023-06-14T14:25:39;29.70;28.70
680;DHT22;322;48.846;9.230;2023-06-14T14:28:07;30.00;29.00
680;DHT22;322;48.846;9.230;2023-06-14T14:30:35;30.70;28.30
680;DHT22;322;48.846;9.230;2023-06-14T14:33:06;31.00;27.70
680;DHT22;322;48.846;9.230;2023-06-14T14:35:34;31.70;27.10
680;DHT22;322;48.846;9.230;2023-06-14T14:38:02;32.20;26.20
680;DHT22;322;48.846;9.230;2023-06-14T14:40:33;33.40;27.10
680;DHT22;322;48.846;9.230;2023-06-14T14:43:01;34.80;24.70
680;DHT22;322;48.846;9.230;2023-06-14T14:45:29;35.10;24.80
680;DHT22;322;48.846;9.230;2023-06-14T14:47:57;34.40;26.40
680;DHT22;322;48.846;9.230;2023-06-14T14:50:25;32.50;26.90
680;DHT22;322;48.846;9.230;2023-06-14T14:52:53;29.90;29.00
680;DHT22;322;48.846;9.230;2023-06-14T14:55:21;28.70;30.70
680;DHT22;322;48.846;9.230;2023-06-14T14:57:51;28.20;31.60
680;DHT22;322;48.846;9.230;2023-06-14T15:00:19;28.90;34.50
680;DHT22;322;48.846;9.230;2023-06-14T15:02:47;29.90;30.30
680;DHT22;322;48.846;9.230;2023-06-14T15:05:16;30.60;30.20
680;DHT22;322;48.846;9.230;2023-06-14T15:07:44;31.20;29.50
680;DHT22;322;48.846;9.230;2023-06-14T15:10:12;31.20;28.00
680;DHT22;322;48.846;9.230;2023-06-14T15:12:40;32.00;28.30
680;DHT22;322;48.846;9.230;2023-06-14T15:15:10;31.50;28.20
680;DHT22;322;48.846;9.230;2023-06-14T15:17:38;29.80;30.60
680;DHT22;322;48.846;9.230;2023-06-14T15:20:07;30.20;30.30
680;DHT22;322;48.846;9.230;2023-06-14T15:22:36;30.30;28.30
680;DHT22;322;48.846;9.230;2023-06-14T15:25:04;29.20;28.70
680;DHT22;322;48.846;9.230;2023-06-14T15:27:33;28.30;30.40
680;DHT22;322;48.846;9.230;2023-06-14T15:30:01;28.10;31.20
680;DHT22;322;48.846;9.230;2023-06-14T15:32:31;28.30;30.10
680;DHT22;322;48.846;9.230;2023-06-14T15:34:59;28.30;30.50
680;DHT22;322;48.846;9.230;2023-06-14T15:37:27;27.80;31.40
680;DHT22;322;48.846;9.230;2023-06-14T15:39:55;28.00;30.80
680;DHT22;322;48.846;9.230;2023-06-14T15:42:23;28.60;30.20
680;DHT22;322;48.846;9.230;2023-06-14T15:44:51;28.50;30.00
680;DHT22;322;48.846;9.230;2023-06-14T15:47:19;28.90;29.60
680;DHT22;322;48.846;9.230;2023-06-14T15:49:49;29.50;29.20
680;DHT22;322;48.846;9.230;2023-06-14T15:52:17;30.30;28.40
680;DHT22;322;48.846;9.230;2023-06-14T15:54:45;29.80;28.90
680;DHT22;322;48.846;9.230;2023-06-14T15:57:13;29.50;29.70
680;DHT22;322;48.846;9.230;2023-06-14T15:59:41;28.30;30.00
680;DHT22;322;48.846;9.230;2023-06-14T16:02:09;27.00;32.50
680;DHT22;322;48.846;9.230;2023-06-14T16:04:37;25.90;33.20
680;DHT22;322;48.846;9.230;2023-06-14T16:07:06;25.60;33.80
680;DHT22;322;48.846;9.230;2023-06-14T16:09:34;25.40;34.90
680;DHT22;322;48.846;9.230;2023-06-14T16:12:03;25.70;34.90
680;DHT22;322;48.846;9.230;2023-06-14T16:14:32;26.70;34.00
680;DHT22;322;48.846;9.230;2023-06-14T16:17:00;27.80;31.40
680;DHT22;322;48.846;9.230;2023-06-14T16:19:28;28.30;32.20
680;DHT22;322;48.846;9.230;2023-06-14T16:21:56;28.10;32.70
680;DHT22;322;48.846;9.230;2023-06-14T16:24:25;28.30;32.60
680;DHT22;322;48.846;9.230;2023-06-14T16:26:54;29.30;31.00
680;DHT22;322;48.846;9.230;2023-06-14T16:29:22;29.10;30.10
680;DHT22;322;48.846;9.230;2023-06-14T16:31:50;28.50;31.20
680;DHT22;322;48.846;9.230;2023-06-14T16:34:18;28.20;32.50
680;DHT22;322;48.846;9.230;2023-06-14T16:36:46;28.70;32.00
680;DHT22;322;48.846;9.230;2023-06-14T16:39:14;28.70;29.80
680;DHT22;322;48.846;9.230;2023-06-14T16:41:43;27.90;31.10
680;DHT22;322;48.846;9.230;2023-06-14T16:44:11;27.50;31.40
680;DHT22;322;48.846;9.230;2023-06-14T16:46:41;27.20;31.70
680;DHT22;322;48.846;9.230;2023-06-14T16:49:09;26.90;31.60
680;DHT22;322;48.846;9.230;2023-06-14T16:51:37;27.10;32.30